sensor_id;sensor_type;location;lat;lon;timestamp;pressure;altitude;pressure_sealevel;temperature;humidity
40205;BME280;26963;42.666;23.366;2023-02-23T00:01:37;94758.81;;;9.18;47.33
40205;BME280;26963;42.666;23.366;2023-02-23T00:04:03;94809.06;;;9.54;47.78
40205;BME280;26963;42.666;23.366;2023-02-23T00:06:30;94747.56;;;9.21;47.28
40205;BME280;26963;42.666;23.366;2023-02-23T00:08:59;94806.34;;;9.59;46.79
40205;BME280;26963;42.666;23.366;2023-02-23T00:11:25;94812.13;;;9.67;46.32
40205;BME280;26963;42.666;23.366;2023-02-23T00:13:54;94765.03;;;9.33;46.36
40205;BME280;26963;42.666;23.366;2023-02-23T00:16:24;94720.13;;;8.96;47.06
40205;BME280;26963;42.666;23.366;2023-02-23T00:18:52;94821.50;;;9.45;47.44
40205;BME280;26963;42.666;23.366;2023-02-23T00:21:27;94816.56;;;9.52;47.36
40205;BME280;26963;42.666;23.366;2023-02-23T00:23:59;94826.63;;;9.60;47.13
40205;BME280;26963;42.666;23.366;2023-02-23T00:26:28;94822.22;;;9.70;46.29
40205;BME280;26963;42.666;23.366;2023-02-23T00:29:02;94816.44;;;9.62;46.40
40205;BME280;26963;42.666;23.366;2023-02-23T00:31:28;94804.66;;;9.44;47.08
40205;BME280;26963;42.666;23.366;2023-02-23T00:33:56;94812.53;;;9.36;47.34
40205;BME280;26963;42.666;23.366;2023-02-23T00:36:25;94822.41;;;9.35;47.26
40205;BME280;26963;42.666;23.366;2023-02-23T00:38:56;94807.19;;;9.36;47.30
40205;BME280;26963;42.666;23.366;2023-02-23T00:41:22;94756.22;;;9.13;46.89
40205;BME280;26963;42.666;23.366;2023-02-23T00:43:54;94810.06;;;9.39;47.09
40205;BME280;26963;42.666;23.366;2023-02-23T00:46:21;94800.97;;;9.21;47.25
40205;BME280;26963;42.666;23.366;2023-02-23T00:48:48;94800.53;;;9.33;47.79
40205;BME280;26963;42.666;23.366;2023-02-23T00:51:15;94811.38;;;9.42;47.24
40205;BME280;26963;42.666;23.366;2023-02-23T00:53:42;94743.00;;;9.03;46.99
40205;BME280;26963;42.666;23.366;2023-02-23T00:56:10;94797.72;;;9.43;47.02
40205;BME280;26963;42.666;23.366;2023-02-23T00:58:36;94818.59;;;9.41;47.03
40205;BME280;26963;42.666;23.366;2023-02-23T01:01:05;94648.66;;;8.26;46.94
40205;BME280;26963;42.666;23.366;2023-02-23T01:03:34;94760.81;;;8.88;47.86
40205;BME280;26963;42.666;23.366;2023-02-23T01:06:01;94825.44;;;9.28;47.61
40205;BME280;26963;42.666;23.366;2023-02-23T01:08:35;94804.25;;;9.13;47.51
40205;BME280;26963;42.666;23.366;2023-02-23T01:11:08;94760.84;;;8.83;47.87
40205;BME280;26963;42.666;23.366;2023-02-23T01:13:36;94800.50;;;9.14;48.03
40205;BME280;26963;42.666;23.366;2023-02-23T01:16:07;94784.41;;;9.00;47.97
40205;BME280;26963;42.666;23.366;2023-02-23T01:18:33;94748.53;;;8.87;47.90
40205;BME280;26963;42.666;23.366;2023-02-23T01:21:00;94747.22;;;8.85;48.09
40205;BME280;26963;42.666;23.366;2023-02-23T01:23:26;94807.75;;;9.33;47.79
40205;BME280;26963;42.666;23.366;2023-02-23T01:25:54;94814.03;;;9.42;47.85
40205;BME280;26963;42.666;23.366;2023-02-23T01:28:19;94741.94;;;9.04;47.88
40205;BME280;26963;42.666;23.366;2023-02-23T01:30:45;94813.41;;;9.50;47.47
40205;BME280;26963;42.666;23.366;2023-02-23T01:33:10;94802.44;;;9.52;47.27
40205;BME280;26963;42.666;23.366;2023-02-23T01:35:37;94783.28;;;9.44;46.96
40205;BME280;26963;42.666;23.366;2023-02-23T01:38:03;94785.47;;;9.42;47.36
40205;BME280;26963;42.666;23.366;2023-02-23T01:40:30;94794.19;;;9.48;47.43
40205;BME280;26963;42.666;23.366;2023-02-23T01:42:59;94813.69;;;9.68;47.13
40205;BME280;26963;42.666;23.366;2023-02-23T01:45:29;94801.91;;;9.69;46.81
40205;BME280;26963;42.666;23.366;2023-02-23T01:47:58;94794.06;;;9.58;46.62
40205;BME280;26963;42.666;23.366;2023-02-23T01:50:29;94791.59;;;9.62;46.98
40205;BME280;26963;42.666;23.366;2023-02-23T01:52:57;94795.50;;;9.70;46.87
40205;BME280;26963;42.666;23.366;2023-02-23T01:55:24;94797.66;;;9.68;46.61
40205;BME280;26963;42.666;23.366;2023-02-23T01:57:57;94802.59;;;9.60;46.67
40205;BME280;26963;42.666;23.366;2023-02-23T02:00:25;94797.47;;;9.64;46.53
40205;BME280;26963;42.666;23.366;2023-02-23T02:02:54;94768.28;;;9.49;46.42
40205;BME280;26963;42.666;23.366;2023-02-23T02:05:23;94798.47;;;9.68;46.53
40205;BME280;26963;42.666;23.366;2023-02-23T02:07:50;94742.31;;;9.35;46.13
40205;BME280;26963;42.666;23.366;2023-02-23T02:10:27;94714.31;;;9.13;46.59
40205;BME280;26963;42.666;23.366;2023-02-23T02:13:06;94781.38;;;9.50;46.66
40205;BME280;26963;42.666;23.366;2023-02-23T02:15:37;94751.19;;;9.30;46.57
40205;BME280;26963;42.666;23.366;2023-02-23T02:21:07;94796.81;;;9.53;46.58
40205;BME280;26963;42.666;23.366;2023-02-23T02:26:57;94791.59;;;9.43;46.66
40205;BME280;26963;42.666;23.366;2023-02-23T02:40:06;94808.91;;;9.26;47.00
40205;BME280;26963;42.666;23.366;2023-02-23T02:45:21;94790.41;;;9.11;47.49
40205;BME280;26963;42.666;23.366;2023-02-23T02:48:02;94787.81;;;9.06;47.66
40205;BME280;26963;42.666;23.366;2023-02-23T02:50:48;94783.47;;;9.10;47.01
40205;BME280;26963;42.666;23.366;2023-02-23T02:53:27;94759.44;;;8.91;47.25
40205;BME280;26963;42.666;23.366;2023-02-23T02:55:59;94787.00;;;9.05;47.04
40205;BME280;26963;42.666;23.366;2023-02-23T02:58:26;94799.50;;;9.10;47.26
40205;BME280;26963;42.666;23.366;2023-02-23T03:00:52;94803.25;;;9.09;47.15
40205;BME280;26963;42.666;23.366;2023-02-23T03:03:39;94748.66;;;8.77;46.79
40205;BME280;26963;42.666;23.366;2023-02-23T03:06:31;94792.09;;;9.02;46.80
40205;BME280;26963;42.666;23.366;2023-02-23T03:12:53;94801.31;;;8.90;47.63
40205;BME280;26963;42.666;23.366;2023-02-23T03:15:59;94802.69;;;8.88;47.53
40205;BME280;26963;42.666;23.366;2023-02-23T03:18:54;94806.22;;;8.83;47.51
40205;BME280;26963;42.666;23.366;2023-02-23T03:21:51;94813.16;;;8.79;47.61
40205;BME280;26963;42.666;23.366;2023-02-23T03:24:43;94731.53;;;8.29;47.21
40205;BME280;26963;42.666;23.366;2023-02-23T03:27:49;94806.31;;;8.73;47.40
40205;BME280;26963;42.666;23.366;2023-02-23T03:30:50;94756.56;;;8.33;48.25
40205;BME280;26963;42.666;23.366;2023-02-23T03:34:11;94815.50;;;8.61;47.93
40205;BME280;26963;42.666;23.366;2023-02-23T03:37:13;94797.31;;;8.34;48.19
40205;BME280;26963;42.666;23.366;2023-02-23T03:40:05;94828.13;;;8.51;48.70
40205;BME280;26963;42.666;23.366;2023-02-23T03:42:52;94803.41;;;8.40;48.92
40205;BME280;26963;42.666;23.366;2023-02-23T03:45:38;94813.50;;;8.48;48.79
40205;BME280;26963;42.666;23.366;2023-02-23T03:48:24;94825.72;;;8.54;48.68
40205;BME280;26963;42.666;23.366;2023-02-23T03:51:12;94818.31;;;8.46;48.68
40205;BME280;26963;42.666;23.366;2023-02-23T03:54:16;94702.78;;;7.67;48.59
40205;BME280;26963;42.666;23.366;2023-02-23T03:57:07;94762.88;;;8.13;48.50
40205;BME280;26963;42.666;23.366;2023-02-23T03:59:56;94703.88;;;7.66;48.95
40205;BME280;26963;42.666;23.366;2023-02-23T04:02:43;94807.66;;;8.41;48.82
40205;BME280;26963;42.666;23.366;2023-02-23T04:05:29;94771.13;;;8.12;48.35
40205;BME280;26963;42.666;23.366;2023-02-23T04:08:17;94843.84;;;8.52;47.98
40205;BME280;26963;42.666;23.366;2023-02-23T04:14:38;94823.75;;;8.30;48.64
40205;BME280;26963;42.666;23.366;2023-02-23T04:17:07;94815.25;;;8.23;49.16
40205;BME280;26963;42.666;23.366;2023-02-23T04:19:33;94746.88;;;7.79;48.88
40205;BME280;26963;42.666;23.366;2023-02-23T04:21:59;94811.09;;;8.17;48.49
40205;BME280;26963;42.666;23.366;2023-02-23T04:24:24;94783.47;;;8.03;48.51
40205;BME280;26963;42.666;23.366;2023-02-23T04:26:50;94816.38;;;8.22;48.64
40205;BME280;26963;42.666;23.366;2023-02-23T04:29:15;94834.94;;;8.32;48.46
40205;BME280;26963;42.666;23.366;2023-02-23T04:31:41;94774.00;;;7.86;48.13
40205;BME280;26963;42.666;23.366;2023-02-23T04:34:07;94840.56;;;8.26;48.58
40205;BME280;26963;42.666;23.366;2023-02-23T04:36:33;94733.75;;;7.58;48.81
40205;BME280;26963;42.666;23.366;2023-02-23T04:38:58;94788.31;;;7.95;48.30
40205;BME280;26963;42.666;23.366;2023-02-23T04:41:24;94841.38;;;8.26;47.75
40205;BME280;26963;42.666;23.366;2023-02-23T04:43:49;94827.56;;;8.19;48.20
40205;BME280;26963;42.666;23.366;2023-02-23T04:46:15;94831.03;;;8.20;48.24
40205;BME280;26963;42.666;23.366;2023-02-23T04:48:41;94767.75;;;7.72;48.27
40205;BME280;26963;42.666;23.366;2023-02-23T04:51:06;94836.44;;;8.09;48.46
40205;BME280;26963;42.666;23.366;2023-02-23T04:53:32;94776.75;;;7.76;48.18
40205;BME280;26963;42.666;23.366;2023-02-23T04:55:57;94834.88;;;8.08;48.28
40205;BME280;26963;42.666;23.366;2023-02-23T04:58:23;94835.16;;;8.02;49.17
40205;BME280;26963;42.666;23.366;2023-02-23T05:00:48;94830.88;;;8.06;49.02
40205;BME280;26963;42.666;23.366;2023-02-23T05:03:14;94801.72;;;7.85;48.89
40205;BME280;26963;42.666;23.366;2023-02-23T05:05:42;94719.84;;;7.27;48.87
40205;BME280;26963;42.666;23.366;2023-02-23T05:08:08;94722.00;;;7.25;49.24
40205;BME280;26963;42.666;23.366;2023-02-23T05:10:33;94805.47;;;7.79;48.45
40205;BME280;26963;42.666;23.366;2023-02-23T05:12:59;94831.47;;;7.97;49.12
40205;BME280;26963;42.666;23.366;2023-02-23T05:15:26;94665.03;;;6.81;49.17
40205;BME280;26963;42.666;23.366;2023-02-23T05:17:54;94841.59;;;7.95;49.41
40205;BME280;26963;42.666;23.366;2023-02-23T05:20:22;94837.88;;;7.96;48.89
40205;BME280;26963;42.666;23.366;2023-02-23T05:22:48;94826.19;;;7.92;49.16
40205;BME280;26963;42.666;23.366;2023-02-23T05:25:13;94847.41;;;8.03;49.39
40205;BME280;26963;42.666;23.366;2023-02-23T05:27:39;94844.81;;;7.92;49.57
40205;BME280;26963;42.666;23.366;2023-02-23T05:30:06;94680.44;;;6.89;49.85
40205;BME280;26963;42.666;23.366;2023-02-23T05:32:32;94787.81;;;7.59;50.10
40205;BME280;26963;42.666;23.366;2023-02-23T05:34:59;94851.72;;;7.98;49.35
40205;BME280;26963;42.666;23.366;2023-02-23T05:37:25;94856.47;;;8.02;50.13
40205;BME280;26963;42.666;23.366;2023-02-23T05:39:50;94840.56;;;7.91;49.21
40205;BME280;26963;42.666;23.366;2023-02-23T05:42:16;94871.41;;;8.03;49.89
40205;BME280;26963;42.666;23.366;2023-02-23T05:44:41;94785.44;;;7.52;49.76
40205;BME280;26963;42.666;23.366;2023-02-23T05:47:07;94871.94;;;8.05;49.83
40205;BME280;26963;42.666;23.366;2023-02-23T05:49:32;94872.44;;;8.07;49.71
40205;BME280;26963;42.666;23.366;2023-02-23T05:51:58;94881.22;;;8.07;50.08
40205;BME280;26963;42.666;23.366;2023-02-23T05:54:23;94869.28;;;7.99;49.43
40205;BME280;26963;42.666;23.366;2023-02-23T05:56:49;94828.09;;;7.81;50.08
40205;BME280;26963;42.666;23.366;2023-02-23T05:59:15;94705.91;;;6.95;49.70
40205;BME280;26963;42.666;23.366;2023-02-23T06:01:41;94870.25;;;8.14;49.80
40205;BME280;26963;42.666;23.366;2023-02-23T06:04:07;94843.22;;;7.91;49.71
40205;BME280;26963;42.666;23.366;2023-02-23T06:06:33;94843.72;;;7.98;49.46
40205;BME280;26963;42.666;23.366;2023-02-23T06:08:58;94882.66;;;8.29;49.71
40205;BME280;26963;42.666;23.366;2023-02-23T06:11:24;94891.41;;;8.35;49.79
40205;BME280;26963;42.666;23.366;2023-02-23T06:13:49;94873.44;;;8.16;49.53
40205;BME280;26963;42.666;23.366;2023-02-23T06:16:15;94884.66;;;8.13;49.59
40205;BME280;26963;42.666;23.366;2023-02-23T06:18:40;94894.56;;;8.07;50.34
40205;BME280;26963;42.666;23.366;2023-02-23T06:21:06;94889.34;;;7.92;50.63
40205;BME280;26963;42.666;23.366;2023-02-23T06:23:32;94835.50;;;7.50;51.09
40205;BME280;26963;42.666;23.366;2023-02-23T06:25:58;94835.53;;;7.40;50.90
40205;BME280;26963;42.666;23.366;2023-02-23T06:28:25;94900.25;;;7.90;51.34
40205;BME280;26963;42.666;23.366;2023-02-23T06:30:54;94697.31;;;6.53;51.60
40205;BME280;26963;42.666;23.366;2023-02-23T06:33:21;94907.69;;;7.93;51.41
40205;BME280;26963;42.666;23.366;2023-02-23T06:35:47;94847.69;;;7.61;51.06
40205;BME280;26963;42.666;23.366;2023-02-23T06:38:12;94832.25;;;7.58;50.68
40205;BME280;26963;42.666;23.366;2023-02-23T06:40:38;94908.13;;;8.11;50.95
40205;BME280;26963;42.666;23.366;2023-02-23T06:43:04;94906.56;;;8.05;51.17
40205;BME280;26963;42.666;23.366;2023-02-23T06:45:30;94905.53;;;8.00;51.16
40205;BME280;26963;42.666;23.366;2023-02-23T06:47:57;94844.84;;;7.42;51.83
40205;BME280;26963;42.666;23.366;2023-02-23T06:50:24;94858.47;;;7.30;52.59
40205;BME280;26963;42.666;23.366;2023-02-23T06:52:49;94895.72;;;7.35;53.00
40205;BME280;26963;42.666;23.366;2023-02-23T06:55:16;94853.56;;;6.82;53.84
40205;BME280;26963;42.666;23.366;2023-02-23T06:57:41;94897.97;;;6.97;54.93
40205;BME280;26963;42.666;23.366;2023-02-23T07:00:10;94914.41;;;7.20;54.53
40205;BME280;26963;42.666;23.366;2023-02-23T07:02:40;94918.28;;;7.48;54.63
40205;BME280;26963;42.666;23.366;2023-02-23T07:05:25;94915.31;;;7.60;53.72
40205;BME280;26963;42.666;23.366;2023-02-23T07:07:50;94899.81;;;7.73;53.46
40205;BME280;26963;42.666;23.366;2023-02-23T07:10:16;94893.34;;;7.89;53.06
40205;BME280;26963;42.666;23.366;2023-02-23T07:12:42;94921.34;;;8.26;52.50
40205;BME280;26963;42.666;23.366;2023-02-23T07:15:08;94898.81;;;8.43;51.72
40205;BME280;26963;42.666;23.366;2023-02-23T07:17:35;94903.81;;;8.84;50.67
40205;BME280;26963;42.666;23.366;2023-02-23T07:20:01;94849.34;;;8.90;50.01
40205;BME280;26963;42.666;23.366;2023-02-23T07:22:26;94885.31;;;9.66;47.96
40205;BME280;26963;42.666;23.366;2023-02-23T07:24:55;94850.81;;;9.88;47.25
40205;BME280;26963;42.666;23.366;2023-02-23T07:27:23;94856.16;;;10.59;45.78
40205;BME280;26963;42.666;23.366;2023-02-23T07:29:49;94903.28;;;11.49;45.13
40205;BME280;26963;42.666;23.366;2023-02-23T07:32:14;94909.09;;;12.30;42.92
40205;BME280;26963;42.666;23.366;2023-02-23T07:34:40;94839.94;;;12.72;42.08
40205;BME280;26963;42.666;23.366;2023-02-23T07:37:05;94873.06;;;13.79;40.61
40205;BME280;26963;42.666;23.366;2023-02-23T07:39:31;94884.50;;;14.73;38.34
40205;BME280;26963;42.666;23.366;2023-02-23T07:41:59;94893.88;;;15.61;36.50
40205;BME280;26963;42.666;23.366;2023-02-23T07:44:25;94825.94;;;15.98;34.58
40205;BME280;26963;42.666;23.366;2023-02-23T07:46:50;94879.31;;;17.23;33.71
40205;BME280;26963;42.666;23.366;2023-02-23T07:49:17;94888.28;;;18.26;32.42
40205;BME280;26963;42.666;23.366;2023-02-23T07:51:42;94863.91;;;18.95;30.86
40205;BME280;26963;42.666;23.366;2023-02-23T07:54:08;94874.06;;;19.30;28.83
40205;BME280;26963;42.666;23.366;2023-02-23T07:56:34;94812.22;;;19.04;29.00
40205;BME280;26963;42.666;23.366;2023-02-23T07:58:59;94854.91;;;19.71;28.35
40205;BME280;26963;42.666;23.366;2023-02-23T08:01:25;94779.22;;;19.50;27.37
40205;BME280;26963;42.666;23.366;2023-02-23T08:03:50;94873.97;;;20.26;27.35
40205;BME280;26963;42.666;23.366;2023-02-23T08:06:18;94821.22;;;20.47;26.96
40205;BME280;26963;42.666;23.366;2023-02-23T08:08:44;94876.06;;;21.34;26.34
40205;BME280;26963;42.666;23.366;2023-02-23T08:11:09;94723.44;;;20.93;25.50
40205;BME280;26963;42.666;23.366;2023-02-23T08:13:35;94795.03;;;21.01;25.71
40205;BME280;26963;42.666;23.366;2023-02-23T08:16:04;94846.34;;;21.02;25.54
40205;BME280;26963;42.666;23.366;2023-02-23T08:18:30;94868.19;;;21.06;25.73
40205;BME280;26963;42.666;23.366;2023-02-23T08:21:02;94862.03;;;21.32;25.72
40205;BME280;26963;42.666;23.366;2023-02-23T08:23:29;94855.13;;;21.39;26.06
40205;BME280;26963;42.666;23.366;2023-02-23T08:25:55;94715.16;;;20.00;26.50
40205;BME280;26963;42.666;23.366;2023-02-23T08:28:24;94866.50;;;20.78;26.29
40205;BME280;26963;42.666;23.366;2023-02-23T08:30:51;94850.75;;;19.77;27.59
40205;BME280;26963;42.666;23.366;2023-02-23T08:33:17;94833.28;;;19.27;28.61
40205;BME280;26963;42.666;23.366;2023-02-23T08:35:42;94872.66;;;19.04;28.78
40205;BME280;26963;42.666;23.366;2023-02-23T08:38:09;94879.66;;;18.77;30.01
40205;BME280;26963;42.666;23.366;2023-02-23T08:40:35;94831.50;;;17.89;30.19
40205;BME280;26963;42.666;23.366;2023-02-23T08:43:00;94744.75;;;16.83;31.20
40205;BME280;26963;42.666;23.366;2023-02-23T08:45:26;94853.63;;;17.29;32.06
40205;BME280;26963;42.666;23.366;2023-02-23T08:47:54;94848.38;;;16.99;32.21
40205;BME280;26963;42.666;23.366;2023-02-23T08:50:21;94855.59;;;16.95;32.70
40205;BME280;26963;42.666;23.366;2023-02-23T08:52:49;94865.16;;;17.05;32.58
40205;BME280;26963;42.666;23.366;2023-02-23T08:55:14;94850.19;;;16.95;32.46
40205;BME280;26963;42.666;23.366;2023-02-23T08:57:42;94861.25;;;17.15;32.37
40205;BME280;26963;42.666;23.366;2023-02-23T09:00:08;94817.25;;;16.80;32.55
40205;BME280;26963;42.666;23.366;2023-02-23T09:02:39;94868.47;;;17.10;32.68
40205;BME280;26963;42.666;23.366;2023-02-23T09:05:06;94861.78;;;16.74;33.22
40205;BME280;26963;42.666;23.366;2023-02-23T09:07:32;94855.00;;;16.56;33.77
40205;BME280;26963;42.666;23.366;2023-02-23T09:09:57;94859.84;;;16.62;33.60
40205;BME280;26963;42.666;23.366;2023-02-23T09:12:24;94853.91;;;16.69;33.45
40205;BME280;26963;42.666;23.366;2023-02-23T09:14:49;94873.06;;;16.76;33.57
40205;BME280;26963;42.666;23.366;2023-02-23T09:17:19;94795.59;;;16.56;33.94
40205;BME280;26963;42.666;23.366;2023-02-23T09:19:45;94842.91;;;17.08;32.88
40205;BME280;26963;42.666;23.366;2023-02-23T09:22:10;94811.34;;;17.12;32.13
40205;BME280;26963;42.666;23.366;2023-02-23T09:24:36;94857.91;;;17.67;31.68
40205;BME280;26963;42.666;23.366;2023-02-23T09:27:03;94869.38;;;17.89;31.78
40205;BME280;26963;42.666;23.366;2023-02-23T09:29:29;94863.75;;;18.06;31.21
40205;BME280;26963;42.666;23.366;2023-02-23T09:31:54;94827.81;;;17.69;31.14
40205;BME280;26963;42.666;23.366;2023-02-23T09:34:22;94856.75;;;18.05;31.43
40205;BME280;26963;42.666;23.366;2023-02-23T09:36:48;94817.50;;;17.87;31.04
40205;BME280;26963;42.666;23.366;2023-02-23T09:39:14;94757.06;;;17.05;31.24
40205;BME280;26963;42.666;23.366;2023-02-23T09:41:59;94690.56;;;16.54;31.79
40205;BME280;26963;42.666;23.366;2023-02-23T09:47:31;94867.22;;;18.19;31.39
40205;BME280;26963;42.666;23.366;2023-02-23T09:49:58;94862.69;;;18.52;30.97
40205;BME280;26963;42.666;23.366;2023-02-23T09:52:37;94851.41;;;18.62;30.29
40205;BME280;26963;42.666;23.366;2023-02-23T09:55:03;94804.06;;;18.44;30.08
40205;BME280;26963;42.666;23.366;2023-02-23T09:57:40;94794.97;;;18.52;30.00
40205;BME280;26963;42.666;23.366;2023-02-23T10:00:25;94844.84;;;19.07;29.44
40205;BME280;26963;42.666;23.366;2023-02-23T10:03:25;94850.19;;;19.20;29.29
40205;BME280;26963;42.666;23.366;2023-02-23T10:06:00;94783.06;;;18.85;29.32
40205;BME280;26963;42.666;23.366;2023-02-23T10:11:28;94837.78;;;19.03;29.22
40205;BME280;26963;42.666;23.366;2023-02-23T10:14:09;94827.66;;;18.87;29.28
40205;BME280;26963;42.666;23.366;2023-02-23T10:16:59;94834.50;;;18.97;29.43
40205;BME280;26963;42.666;23.366;2023-02-23T10:22:09;94832.94;;;18.68;32.06
40205;BME280;26963;42.666;23.366;2023-02-23T10:24:42;94756.94;;;18.32;31.13
40205;BME280;26963;42.666;23.366;2023-02-23T10:27:14;94832.34;;;18.74;30.19
40205;BME280;26963;42.666;23.366;2023-02-23T10:29:45;94790.75;;;18.38;30.31
40205;BME280;26963;42.666;23.366;2023-02-23T10:32:28;94769.34;;;18.33;31.62
40205;BME280;26963;42.666;23.366;2023-02-23T10:34:56;94754.94;;;18.45;30.50
40205;BME280;26963;42.666;23.366;2023-02-23T10:37:23;94696.38;;;18.24;30.02
40205;BME280;26963;42.666;23.366;2023-02-23T10:39:50;94790.72;;;18.95;29.34
40205;BME280;26963;42.666;23.366;2023-02-23T10:42:21;94796.53;;;18.81;30.01
40205;BME280;26963;42.666;23.366;2023-02-23T10:44:47;94809.28;;;18.81;29.86
40205;BME280;26963;42.666;23.366;2023-02-23T10:47:23;94805.00;;;18.80;29.92
40205;BME280;26963;42.666;23.366;2023-02-23T10:49:53;94799.75;;;18.87;30.25
40205;BME280;26963;42.666;23.366;2023-02-23T10:52:21;94772.81;;;18.78;29.95
40205;BME280;26963;42.666;23.366;2023-02-23T10:54:51;94792.72;;;18.98;29.78
40205;BME280;26963;42.666;23.366;2023-02-23T10:57:26;94787.13;;;19.07;29.08
40205;BME280;26963;42.666;23.366;2023-02-23T11:02:40;94787.28;;;19.30;28.75
40205;BME280;26963;42.666;23.366;2023-02-23T11:05:12;94782.91;;;19.26;29.17
40205;BME280;26963;42.666;23.366;2023-02-23T11:07:50;94733.13;;;18.70;29.22
40205;BME280;26963;42.666;23.366;2023-02-23T11:10:33;94738.56;;;18.70;29.81
40205;BME280;26963;42.666;23.366;2023-02-23T11:12:58;94718.28;;;18.64;29.88
40205;BME280;26963;42.666;23.366;2023-02-23T11:18:18;94769.69;;;19.24;29.47
40205;BME280;26963;42.666;23.366;2023-02-23T11:20:44;94758.50;;;19.26;29.72
40205;BME280;26963;42.666;23.366;2023-02-23T11:23:11;94771.66;;;19.59;30.88
40205;BME280;26963;42.666;23.366;2023-02-23T11:25:42;94754.91;;;19.73;28.87
40205;BME280;26963;42.666;23.366;2023-02-23T11:28:20;94756.47;;;19.90;28.95
40205;BME280;26963;42.666;23.366;2023-02-23T11:30:49;94746.88;;;19.96;29.49
40205;BME280;26963;42.666;23.366;2023-02-23T11:33:17;94755.53;;;20.02;28.49
40205;BME280;26963;42.666;23.366;2023-02-23T11:35:43;94738.16;;;19.87;29.54
40205;BME280;26963;42.666;23.366;2023-02-23T11:38:23;94740.75;;;19.99;27.90
40205;BME280;26963;42.666;23.366;2023-02-23T11:41:05;94724.56;;;19.87;28.02
40205;BME280;26963;42.666;23.366;2023-02-23T11:43:31;94737.00;;;19.88;27.76
40205;BME280;26963;42.666;23.366;2023-02-23T11:45:59;94729.94;;;19.83;28.72
40205;BME280;26963;42.666;23.366;2023-02-23T11:48:47;94742.38;;;20.04;28.31
40205;BME280;26963;42.666;23.366;2023-02-23T11:51:23;94736.88;;;20.00;28.55
40205;BME280;26963;42.666;23.366;2023-02-23T11:53:50;94723.19;;;19.77;27.27
40205;BME280;26963;42.666;23.366;2023-02-23T11:56:21;94729.03;;;19.60;27.71
40205;BME280;26963;42.666;23.366;2023-02-23T11:59:06;94737.50;;;19.58;27.71
40205;BME280;26963;42.666;23.366;2023-02-23T12:01:47;94672.06;;;19.24;27.98
40205;BME280;26963;42.666;23.366;2023-02-23T12:04:28;94745.66;;;19.58;28.36
40205;BME280;26963;42.666;23.366;2023-02-23T12:09:56;94728.88;;;19.17;28.90
40205;BME280;26963;42.666;23.366;2023-02-23T12:12:25;94659.00;;;18.46;29.20
40205;BME280;26963;42.666;23.366;2023-02-23T12:14:55;94703.84;;;18.75;29.68
40205;BME280;26963;42.666;23.366;2023-02-23T12:17:28;94670.28;;;18.64;29.94
40205;BME280;26963;42.666;23.366;2023-02-23T12:20:13;94667.81;;;18.91;29.52
40205;BME280;26963;42.666;23.366;2023-02-23T12:22:56;94637.41;;;18.82;29.38
40205;BME280;26963;42.666;23.366;2023-02-23T12:25:42;94683.34;;;19.26;29.28
40205;BME280;26963;42.666;23.366;2023-02-23T12:28:32;94713.25;;;19.46;28.95
40205;BME280;26963;42.666;23.366;2023-02-23T12:33:47;94720.66;;;18.97;29.73
40205;BME280;26963;42.666;23.366;2023-02-23T12:39:07;94681.53;;;18.50;29.62
40205;BME280;26963;42.666;23.366;2023-02-23T12:42:08;94694.50;;;18.57;29.99
40205;BME280;26963;42.666;23.366;2023-02-23T12:53:26;94710.75;;;18.73;30.07
40205;BME280;26963;42.666;23.366;2023-02-23T12:55:46;94712.78;;;18.92;29.98
40205;BME280;26963;42.666;23.366;2023-02-23T13:07:21;94704.56;;;18.72;29.74
40205;BME280;26963;42.666;23.366;2023-02-23T13:20:32;94655.75;;;18.24;30.28
40205;BME280;26963;42.666;23.366;2023-02-23T13:25:52;94640.19;;;18.05;30.36
40205;BME280;26963;42.666;23.366;2023-02-23T13:28:55;94691.75;;;18.25;30.53
40205;BME280;26963;42.666;23.366;2023-02-23T13:31:26;94707.13;;;18.21;30.99
40205;BME280;26963;42.666;23.366;2023-02-23T13:33:54;94663.59;;;17.98;30.80
40205;BME280;26963;42.666;23.366;2023-02-23T13:36:24;94687.03;;;18.22;30.76
40205;BME280;26963;42.666;23.366;2023-02-23T13:41:38;94642.91;;;17.93;30.87
40205;BME280;26963;42.666;23.366;2023-02-23T13:44:22;94696.63;;;18.35;30.79
40205;BME280;26963;42.666;23.366;2023-02-23T13:49:41;94687.91;;;18.26;30.32
40205;BME280;26963;42.666;23.366;2023-02-23T13:52:41;94639.22;;;17.98;30.32
40205;BME280;26963;42.666;23.366;2023-02-23T13:58:05;94703.63;;;18.36;30.29
40205;BME280;26963;42.666;23.366;2023-02-23T14:00:35;94558.72;;;17.38;29.91
40205;BME280;26963;42.666;23.366;2023-02-23T14:03:06;94681.91;;;18.04;30.05
40205;BME280;26963;42.666;23.366;2023-02-23T14:05:41;94704.66;;;18.16;30.01
40205;BME280;26963;42.666;23.366;2023-02-23T14:08:21;94698.16;;;18.04;30.09
40205;BME280;26963;42.666;23.366;2023-02-23T14:10:49;94665.94;;;17.87;30.14
40205;BME280;26963;42.666;23.366;2023-02-23T14:15:47;94677.88;;;17.70;30.35
40205;BME280;26963;42.666;23.366;2023-02-23T14:20:51;94680.09;;;17.39;32.51
40205;BME280;26963;42.666;23.366;2023-02-23T14:27:03;94706.22;;;17.35;33.25
40205;BME280;26963;42.666;23.366;2023-02-23T14:29:22;94655.03;;;17.02;33.83
40205;BME280;26963;42.666;23.366;2023-02-23T14:34:20;94697.59;;;17.05;34.39
40205;BME280;26963;42.666;23.366;2023-02-23T14:36:49;94559.16;;;15.96;34.37
40205;BME280;26963;42.666;23.366;2023-02-23T14:39:21;94711.22;;;16.96;34.61
40205;BME280;26963;42.666;23.366;2023-02-23T14:41:56;94716.28;;;16.85;34.78
40205;BME280;26963;42.666;23.366;2023-02-23T14:44:30;94724.25;;;16.82;35.02
40205;BME280;26963;42.666;23.366;2023-02-23T14:47:00;94727.28;;;16.68;34.99
40205;BME280;26963;42.666;23.366;2023-02-23T14:49:30;94667.03;;;16.18;35.50
40205;BME280;26963;42.666;23.366;2023-02-23T14:52:07;94731.19;;;16.58;35.52
40205;BME280;26963;42.666;23.366;2023-02-23T14:54:36;94681.97;;;16.27;35.80
40205;BME280;26963;42.666;23.366;2023-02-23T14:57:15;94729.19;;;16.55;35.71